Time;durP1;ratioP1;P1;durP2;ratioP2;P2;SDS_P1;SDS_P2;PMS_P1;PMS_P2;Temp;Humidity;BMP_temperature;BMP_pressure;BME280_temperature;BME280_humidity;BME280_pressure;Samples;Min_cycle;Max_cycle;Signal;HPM_P1;HPM_P2
2021/02/02 00:02:21;;;;;;;0.7;0.7;;;;;;;;;;;;;
2021/02/02 00:04:46;;;;;;;0.7;0.7;;;;;;;;;;;;;
2021/02/02 00:07:11;;;;;;;1.3;0.7;;;;;;;;;;;;;
2021/02/02 00:09:38;;;;;;;1.7;1;;;;;;;;;;;;;
2021/02/02 00:12:03;;;;;;;1.6;1.1;;;;;;;;;;;;;
2021/02/02 00:14:32;;;;;;;1.6;0.9;;;;;;;;;;;;;
2021/02/02 00:16:58;;;;;;;1.7;0.9;;;;;;;;;;;;;
2021/02/02 00:19:25;;;;;;;0.6;0.5;;;;;;;;;;;;;
2021/02/02 00:21:50;;;;;;;1.2;0.9;;;;;;;;;;;;;
2021/02/02 00:24:19;;;;;;;0.6;0.6;;;;;;;;;;;;;
2021/02/02 00:26:49;;;;;;;1.5;0.8;;;;;;;;;;;;;
2021/02/02 00:29:14;;;;;;;1.1;1;;;;;;;;;;;;;
2021/02/02 00:31:40;;;;;;;2.1;1.2;;;;;;;;;;;;;
2021/02/02 00:34:05;;;;;;;3.4;1.2;;;;;;;;;;;;;
2021/02/02 00:36:30;;;;;;;1.7;1.1;;;;;;;;;;;;;
2021/02/02 00:38:55;;;;;;;2.1;1.4;;;;;;;;;;;;;
2021/02/02 00:41:20;;;;;;;2.1;1.5;;;;;;;;;;;;;
2021/02/02 00:43:46;;;;;;;2.1;1.3;;;;;;;;;;;;;
2021/02/02 00:46:12;;;;;;;2.9;1.6;;;;;;;;;;;;;
2021/02/02 00:48:37;;;;;;;1.6;1.1;;;;;;;;;;;;;
2021/02/02 00:51:04;;;;;;;1.9;1.6;;;;;;;;;;;;;
2021/02/02 00:53:29;;;;;;;2.9;1.4;;;;;;;;;;;;;
2021/02/02 00:55:55;;;;;;;1.7;1.1;;;;;;;;;;;;;
2021/02/02 00:58:20;;;;;;;1.2;1;;;;;;;;;;;;;
2021/02/02 01:00:47;;;;;;;1.9;1.3;;;;;;;;;;;;;
2021/02/02 01:03:12;;;;;;;2.2;1.3;;;;;;;;;;;;;
2021/02/02 01:05:41;;;;;;;0.7;0.7;;;;;;;;;;;;;
2021/02/02 01:08:08;;;;;;;0.8;0.6;;;;;;;;;;;;;
2021/02/02 01:10:33;;;;;;;0.7;0.6;;;;;;;;;;;;;
2021/02/02 01:13:00;;;;;;;1.1;0.9;;;;;;;;;;;;;
2021/02/02 01:15:25;;;;;;;1.1;0.8;;;;;;;;;;;;;
2021/02/02 01:17:51;;;;;;;0.6;0.6;;;;;;;;;;;;;
2021/02/02 01:20:16;;;;;;;0.9;0.8;;;;;;;;;;;;;
2021/02/02 01:22:42;;;;;;;0.6;0.5;;;;;;;;;;;;;
2021/02/02 01:25:10;;;;;;;0.6;0.6;;;;;;;;;;;;;
2021/02/02 01:27:37;;;;;;;1.2;0.8;;;;;;;;;;;;;
2021/02/02 01:30:05;;;;;;;0.5;0.5;;;;;;;;;;;;;
2021/02/02 01:32:30;;;;;;;0.8;0.7;;;;;;;;;;;;;
2021/02/02 01:34:56;;;;;;;1.1;0.9;;;;;;;;;;;;;
2021/02/02 01:37:21;;;;;;;4.8;1.2;;;;;;;;;;;;;
2021/02/02 01:39:47;;;;;;;2.3;1.4;;;;;;;;;;;;;
2021/02/02 01:42:12;;;;;;;1.5;1.1;;;;;;;;;;;;;
2021/02/02 01:44:37;;;;;;;2.6;1.1;;;;;;;;;;;;;
2021/02/02 01:47:02;;;;;;;2.3;1.3;;;;;;;;;;;;;
2021/02/02 01:49:28;;;;;;;1.4;0.8;;;;;;;;;;;;;
2021/02/02 01:51:53;;;;;;;3.1;1;;;;;;;;;;;;;
2021/02/02 01:54:18;;;;;;;2.2;1.5;;;;;;;;;;;;;
2021/02/02 01:56:44;;;;;;;1.2;1;;;;;;;;;;;;;
2021/02/02 01:59:09;;;;;;;0.8;0.8;;;;;;;;;;;;;
2021/02/02 02:01:36;;;;;;;1.7;0.8;;;;;;;;;;;;;
2021/02/02 02:04:01;;;;;;;0.8;0.7;;;;;;;;;;;;;
2021/02/02 02:06:27;;;;;;;0.7;0.6;;;;;;;;;;;;;
2021/02/02 02:08:52;;;;;;;1.9;0.9;;;;;;;;;;;;;
2021/02/02 02:11:18;;;;;;;1.3;0.8;;;;;;;;;;;;;
2021/02/02 02:13:44;;;;;;;0.7;0.6;;;;;;;;;;;;;
2021/02/02 02:16:09;;;;;;;0.4;0.4;;;;;;;;;;;;;
2021/02/02 02:18:34;;;;;;;0.6;0.6;;;;;;;;;;;;;
2021/02/02 02:21:02;;;;;;;1.3;0.9;;;;;;;;;;;;;
2021/02/02 02:23:27;;;;;;;0.6;0.6;;;;;;;;;;;;;
2021/02/02 02:25:52;;;;;;;1;0.9;;;;;;;;;;;;;
2021/02/02 02:28:17;;;;;;;1.4;0.7;;;;;;;;;;;;;
2021/02/02 02:30:42;;;;;;;0.4;0.4;;;;;;;;;;;;;
2021/02/02 02:33:07;;;;;;;0.7;0.6;;;;;;;;;;;;;
2021/02/02 02:35:32;;;;;;;1.4;1;;;;;;;;;;;;;
2021/02/02 02:37:58;;;;;;;4.6;1.2;;;;;;;;;;;;;
2021/02/02 02:40:23;;;;;;;1.1;0.7;;;;;;;;;;;;;
2021/02/02 02:42:48;;;;;;;1.7;0.7;;;;;;;;;;;;;
2021/02/02 02:45:14;;;;;;;1;0.8;;;;;;;;;;;;;
2021/02/02 02:47:38;;;;;;;0.5;0.4;;;;;;;;;;;;;
2021/02/02 02:50:04;;;;;;;0.6;0.5;;;;;;;;;;;;;
2021/02/02 02:52:29;;;;;;;0.5;0.5;;;;;;;;;;;;;
2021/02/02 02:54:54;;;;;;;1;0.7;;;;;;;;;;;;;
2021/02/02 02:57:19;;;;;;;0.7;0.7;;;;;;;;;;;;;
2021/02/02 02:59:46;;;;;;;0.4;0.4;;;;;;;;;;;;;
2021/02/02 03:02:11;;;;;;;0.9;0.8;;;;;;;;;;;;;
2021/02/02 03:04:36;;;;;;;1.9;1;;;;;;;;;;;;;
2021/02/02 03:07:02;;;;;;;0.8;0.8;;;;;;;;;;;;;
2021/02/02 03:09:27;;;;;;;0.8;0.7;;;;;;;;;;;;;
2021/02/02 03:11:52;;;;;;;0.6;0.6;;;;;;;;;;;;;
2021/02/02 03:14:17;;;;;;;0.7;0.5;;;;;;;;;;;;;
2021/02/02 03:16:42;;;;;;;2;0.7;;;;;;;;;;;;;
2021/02/02 03:19:09;;;;;;;0.7;0.7;;;;;;;;;;;;;
2021/02/02 03:21:34;;;;;;;0.4;0.4;;;;;;;;;;;;;
2021/02/02 03:24:00;;;;;;;0.4;0.4;;;;;;;;;;;;;
2021/02/02 03:26:25;;;;;;;0.6;0.4;;;;;;;;;;;;;
2021/02/02 03:28:51;;;;;;;0.5;0.5;;;;;;;;;;;;;
2021/02/02 03:31:16;;;;;;;1.4;0.6;;;;;;;;;;;;;
2021/02/02 03:33:42;;;;;;;0.4;0.4;;;;;;;;;;;;;
2021/02/02 03:36:07;;;;;;;0.7;0.5;;;;;;;;;;;;;
2021/02/02 03:38:33;;;;;;;1.2;0.7;;;;;;;;;;;;;
2021/02/02 03:40:58;;;;;;;0.7;0.6;;;;;;;;;;;;;
2021/02/02 03:43:23;;;;;;;1.3;0.7;;;;;;;;;;;;;
2021/02/02 03:45:48;;;;;;;0.7;0.6;;;;;;;;;;;;;
2021/02/02 03:48:13;;;;;;;1.7;0.4;;;;;;;;;;;;;
2021/02/02 03:50:43;;;;;;;0.8;0.6;;;;;;;;;;;;;
2021/02/02 03:53:09;;;;;;;1.7;0.7;;;;;;;;;;;;;
2021/02/02 03:55:34;;;;;;;1;0.6;;;;;;;;;;;;;
2021/02/02 03:58:00;;;;;;;0.4;0.4;;;;;;;;;;;;;
2021/02/02 04:02:30;;;;;;;0.6;0.6;;;;;;;4.11;90.94043;927.683;;;;
2021/02/02 04:04:55;;;;;;;0.5;0.4;;;;;;;4.17;90.64844;927.7256;;;;
2021/02/02 04:07:23;;;;;;;1.9;0.7;;;;;;;4.18;90.52637;927.7171;;;;
2021/02/02 04:09:48;;;;;;;0.4;0.4;;;;;;;4.15;90.59961;927.6481;;;;
2021/02/02 04:12:13;;;;;;;5.5;0.5;;;;;;;4.18;90.3125;927.6628;;;;
2021/02/02 04:14:38;;;;;;;1.1;0.7;;;;;;;4.12;90.31055;927.6382;;;;
2021/02/02 04:17:03;;;;;;;0.6;0.5;;;;;;;4.14;89.96777;927.5709;;;;
2021/02/02 04:19:29;;;;;;;0.8;0.5;;;;;;;4.16;89.58008;927.6649;;;;
2021/02/02 04:21:54;;;;;;;2;0.9;;;;;;;4.14;89.20313;927.6772;;;;
2021/02/02 04:24:23;;;;;;;0.7;0.6;;;;;;;4.07;89.19922;927.6461;;;;
2021/02/02 04:26:49;;;;;;;1.2;0.8;;;;;;;4.03;89.57129;927.5281;;;;
2021/02/02 04:29:14;;;;;;;1.2;0.9;;;;;;;3.96;89.71582;927.5;;;;
2021/02/02 04:31:39;;;;;;;0.6;0.6;;;;;;;3.96;89.81738;927.5959;;;;
2021/02/02 04:34:04;;;;;;;1.7;1.1;;;;;;;3.93;89.72168;927.5797;;;;
2021/02/02 04:36:29;;;;;;;0.8;0.8;;;;;;;3.87;89.43848;927.5717;;;;
2021/02/02 04:38:59;;;;;;;2.6;1.3;;;;;;;3.91;89.14453;927.6731;;;;
2021/02/02 04:41:24;;;;;;;1.6;0.9;;;;;;;3.95;88.63477;927.5761;;;;
2021/02/02 04:43:49;;;;;;;1.3;0.8;;;;;;;3.91;88.59375;927.6778;;;;
2021/02/02 04:46:16;;;;;;;2.1;0.9;;;;;;;3.74;89.50195;927.6685;;;;
2021/02/02 04:48:41;;;;;;;1;0.8;;;;;;;3.73;89.89258;927.6588;;;;
2021/02/02 04:51:08;;;;;;;0.8;0.8;;;;;;;3.73;89.71289;927.7075;;;;
2021/02/02 04:53:33;;;;;;;2.6;1.9;;;;;;;3.8;89.83887;927.7504;;;;
2021/02/02 04:56:03;;;;;;;2.3;1.6;;;;;;;3.79;89.83887;927.7511;;;;
2021/02/02 04:58:28;;;;;;;4.5;1.9;;;;;;;3.77;89.7793;927.7209;;;;
2021/02/02 05:00:59;;;;;;;1.6;1.2;;;;;;;3.76;89.39258;927.7427;;;;
2021/02/02 05:03:28;;;;;;;4;1.7;;;;;;;3.66;89.29395;927.6733;;;;
2021/02/02 05:05:53;;;;;;;3.9;2;;;;;;;3.55;89.6748;927.8259;;;;
2021/02/02 05:08:19;;;;;;;3.9;1.7;;;;;;;3.46;89.97949;927.7511;;;;
2021/02/02 05:10:43;;;;;;;5.8;2.8;;;;;;;3.49;90.05664;927.8462;;;;
2021/02/02 05:13:09;;;;;;;5.9;3.1;;;;;;;3.5;90.27051;927.7542;;;;
2021/02/02 05:15:41;;;;;;;4.2;3;;;;;;;3.45;90.22656;927.8563;;;;
2021/02/02 05:18:06;;;;;;;6.2;1.5;;;;;;;3.27;90.98535;927.8133;;;;
2021/02/02 05:20:31;;;;;;;1;0.9;;;;;;;3.24;91.22656;927.8772;;;;
2021/02/02 05:22:56;;;;;;;1.4;1.2;;;;;;;3.27;91.01758;927.8572;;;;
2021/02/02 05:25:22;;;;;;;1.9;1.2;;;;;;;3.36;90.52246;927.9072;;;;
2021/02/02 05:27:47;;;;;;;3.3;1.2;;;;;;;3.37;90.14258;927.8105;;;;
2021/02/02 05:30:12;;;;;;;3.7;1.8;;;;;;;3.33;90.14453;927.8586;;;;
2021/02/02 05:32:37;;;;;;;11.7;2.7;;;;;;;3.33;90.53711;927.8758;;;;
2021/02/02 05:35:02;;;;;;;4.5;2.8;;;;;;;3.31;90.78027;927.8715;;;;
2021/02/02 05:37:27;;;;;;;3.6;2.6;;;;;;;3.31;91.03809;927.9612;;;;
2021/02/02 05:39:52;;;;;;;4.6;2.3;;;;;;;3.29;90.58398;927.8844;;;;
2021/02/02 05:42:18;;;;;;;6.4;2.9;;;;;;;3.22;90.19922;928.0421;;;;
2021/02/02 05:44:43;;;;;;;3;2.2;;;;;;;3.32;89.81641;928.0927;;;;
2021/02/02 05:47:08;;;;;;;3;1.9;;;;;;;3.25;89.71191;928.1024;;;;
2021/02/02 05:49:34;;;;;;;3.5;1.8;;;;;;;3.29;89.28516;928.211;;;;
2021/02/02 05:51:59;;;;;;;6.9;2;;;;;;;3.35;88.89258;928.217;;;;
2021/02/02 05:54:24;;;;;;;4.2;2.7;;;;;;;3.38;89.25488;928.2441;;;;
2021/02/02 05:56:51;;;;;;;4.3;2.6;;;;;;;3.26;89.65918;928.2442;;;;
2021/02/02 05:59:16;;;;;;;3.6;2.7;;;;;;;3.19;90.42969;928.2849;;;;
2021/02/02 06:01:44;;;;;;;3.8;2.5;;;;;;;3.17;91.05469;928.3505;;;;
2021/02/02 06:04:09;;;;;;;8.1;3.4;;;;;;;3.18;91.15723;928.3619;;;;
2021/02/02 06:06:35;;;;;;;7;2.8;;;;;;;3.23;91.17773;928.3764;;;;
2021/02/02 06:09:00;;;;;;;5.3;2.8;;;;;;;3.24;91.06934;928.4451;;;;
2021/02/02 06:11:27;;;;;;;2.8;2.1;;;;;;;3.29;91.10156;928.4642;;;;
2021/02/02 06:13:52;;;;;;;2.3;1.6;;;;;;;3.28;90.67383;928.483;;;;
2021/02/02 06:16:23;;;;;;;2.2;1.6;;;;;;;3.28;90.81738;928.4852;;;;
2021/02/02 06:18:48;;;;;;;5;2.3;;;;;;;3.32;90.79492;928.4586;;;;
2021/02/02 06:21:13;;;;;;;4.4;3.1;;;;;;;3.23;90.83008;928.5095;;;;
2021/02/02 06:23:38;;;;;;;2.5;1.7;;;;;;;3.2;91.26172;928.5235;;;;
2021/02/02 06:26:10;;;;;;;4.8;2.9;;;;;;;3.16;91.3418;928.4645;;;;
2021/02/02 06:28:35;;;;;;;6.8;3.4;;;;;;;3.07;92.13086;928.6072;;;;
2021/02/02 06:31:04;;;;;;;6.2;2.7;;;;;;;3.09;92.47363;928.5951;;;;
2021/02/02 06:33:29;;;;;;;3.3;2.2;;;;;;;3;93.36035;928.5441;;;;
2021/02/02 06:35:54;;;;;;;3.8;2.4;;;;;;;3.07;93.20801;928.5994;;;;
2021/02/02 06:38:22;;;;;;;4.1;2.4;;;;;;;3.04;93.4043;928.6577;;;;
2021/02/02 06:40:47;;;;;;;4.1;2.5;;;;;;;2.99;93.97559;928.7349;;;;
2021/02/02 06:43:12;;;;;;;2.3;1.6;;;;;;;3.13;93.68359;928.7446;;;;
2021/02/02 06:45:42;;;;;;;2;1.4;;;;;;;3.13;93.56738;928.7296;;;;
2021/02/02 06:48:10;;;;;;;2.3;1.2;;;;;;;3.17;93.64453;928.7712;;;;
2021/02/02 06:50:35;;;;;;;3;1.8;;;;;;;3.22;93.83594;928.7498;;;;
2021/02/02 06:53:02;;;;;;;2.4;1.2;;;;;;;3.33;93.37988;928.7988;;;;
2021/02/02 06:55:31;;;;;;;2.8;1.7;;;;;;;3.48;92.53516;928.8484;;;;
2021/02/02 06:57:57;;;;;;;2.6;1.5;;;;;;;3.53;92.0625;928.8832;;;;
2021/02/02 07:00:24;;;;;;;3.7;1.7;;;;;;;3.66;91.57227;928.8389;;;;
2021/02/02 07:02:50;;;;;;;6.3;2.5;;;;;;;3.71;90.97754;928.8406;;;;
2021/02/02 07:05:20;;;;;;;2.9;2;;;;;;;3.66;90.48438;928.9106;;;;
2021/02/02 07:07:46;;;;;;;5;2.5;;;;;;;3.72;90.39648;928.8337;;;;
2021/02/02 07:10:17;;;;;;;5.2;2.6;;;;;;;3.7;90.3252;928.9523;;;;
2021/02/02 07:12:43;;;;;;;3.7;2.3;;;;;;;3.74;90.72461;928.9263;;;;
2021/02/02 07:15:12;;;;;;;4.5;2;;;;;;;3.83;91.11719;928.9402;;;;
2021/02/02 07:17:37;;;;;;;5.7;3;;;;;;;3.97;91.06738;929.0159;;;;
2021/02/02 07:20:03;;;;;;;4.2;2.5;;;;;;;4.08;90.63086;929.0112;;;;
2021/02/02 07:22:31;;;;;;;4.3;3.1;;;;;;;4.08;90.05762;928.9444;;;;
2021/02/02 07:24:56;;;;;;;9.9;5;;;;;;;4.06;90.34375;928.9194;;;;
2021/02/02 07:27:25;;;;;;;5.3;3.4;;;;;;;4.23;90.09961;928.8141;;;;
2021/02/02 07:29:50;;;;;;;5.7;3;;;;;;;4.44;89.93066;928.8976;;;;
2021/02/02 07:32:15;;;;;;;4.6;3;;;;;;;4.56;89.29199;928.9313;;;;
2021/02/02 07:34:41;;;;;;;6.2;3;;;;;;;4.74;88.40527;928.9077;;;;
2021/02/02 07:37:06;;;;;;;5.4;2.7;;;;;;;4.94;87.3877;928.9637;;;;
2021/02/02 07:39:31;;;;;;;3;2.3;;;;;;;4.88;86.7207;928.8596;;;;
2021/02/02 07:42:02;;;;;;;2.4;1.9;;;;;;;4.83;87.66797;928.8974;;;;
2021/02/02 07:44:32;;;;;;;3.1;2.3;;;;;;;5.05;87.17285;928.8024;;;;
2021/02/02 07:47:02;;;;;;;4;1.9;;;;;;;5.02;86.9873;928.8399;;;;
2021/02/02 07:49:27;;;;;;;3.5;2.1;;;;;;;5.22;86.72266;928.8477;;;;
2021/02/02 07:51:52;;;;;;;2.5;1.6;;;;;;;5.31;85.83887;928.9058;;;;
2021/02/02 07:54:17;;;;;;;2;1.4;;;;;;;5.3;85.7793;928.8748;;;;
2021/02/02 07:56:42;;;;;;;2;1.5;;;;;;;5.25;86.44434;928.9752;;;;
2021/02/02 07:59:07;;;;;;;1.4;1.1;;;;;;;5.54;86.2793;928.8934;;;;
2021/02/02 08:01:32;;;;;;;2.2;1.7;;;;;;;6.09;84.41504;928.9366;;;;
2021/02/02 08:04:00;;;;;;;2.5;1.6;;;;;;;6.75;81.0332;928.9833;;;;
2021/02/02 08:06:25;;;;;;;2.4;1.6;;;;;;;7.35;78.90332;929.0012;;;;
2021/02/02 08:08:50;;;;;;;3.1;1.4;;;;;;;8.2;74.8916;929.0556;;;;
2021/02/02 08:11:16;;;;;;;1.6;1.2;;;;;;;9.07;71.9375;928.946;;;;
2021/02/02 08:13:41;;;;;;;0.7;0.7;;;;;;;9.62;69.74902;928.8875;;;;
2021/02/02 08:16:09;;;;;;;0.9;0.6;;;;;;;10.47;66.41797;928.759;;;;
2021/02/02 08:18:39;;;;;;;0.5;0.5;;;;;;;11.08;64.85449;928.824;;;;
2021/02/02 08:21:04;;;;;;;0.7;0.5;;;;;;;11.76;61.50879;928.8402;;;;
2021/02/02 08:23:30;;;;;;;1.4;0.7;;;;;;;12;61.21191;928.7217;;;;
2021/02/02 08:25:54;;;;;;;0.4;0.4;;;;;;;13.07;58.33008;928.5978;;;;
2021/02/02 08:28:19;;;;;;;1.1;0.7;;;;;;;13.89;55.96582;928.6091;;;;
2021/02/02 08:30:48;;;;;;;0.5;0.5;;;;;;;13.12;57.0498;928.6099;;;;
2021/02/02 08:33:14;;;;;;;0.4;0.4;;;;;;;11.94;58.82031;928.6514;;;;
2021/02/02 08:35:40;;;;;;;0.2;0.2;;;;;;;10.83;62.87402;928.6983;;;;
2021/02/02 08:38:08;;;;;;;1.4;0.4;;;;;;;9.82;67.57129;928.682;;;;
2021/02/02 08:40:33;;;;;;;0.6;0.6;;;;;;;9.52;68.85742;928.637;;;;
2021/02/02 08:42:58;;;;;;;0.8;0.7;;;;;;;8.88;71.65527;928.5408;;;;
2021/02/02 08:45:23;;;;;;;1.1;0.7;;;;;;;8.67;73.01953;928.5793;;;;
2021/02/02 08:47:50;;;;;;;2.4;1.1;;;;;;;8.37;74.69434;928.4952;;;;
2021/02/02 08:50:15;;;;;;;0.8;0.6;;;;;;;8.07;76.15234;928.5986;;;;
2021/02/02 08:52:42;;;;;;;0.6;0.2;;;;;;;7.72;77.69141;928.5776;;;;
2021/02/02 08:55:06;;;;;;;0.7;0.4;;;;;;;7.54;80.00391;928.5386;;;;
2021/02/02 08:57:36;;;;;;;1.1;0.8;;;;;;;7.44;80.4502;928.5174;;;;
2021/02/02 09:00:01;;;;;;;1;0.7;;;;;;;7.08;81.06348;928.5346;;;;
2021/02/02 09:02:27;;;;;;;2;1.3;;;;;;;6.8;82.57324;928.4236;;;;
2021/02/02 09:04:56;;;;;;;2;1.4;;;;;;;6.82;83.25391;928.3702;;;;
2021/02/02 09:07:23;;;;;;;1;0.8;;;;;;;7.07;82.98535;928.4166;;;;
2021/02/02 09:09:49;;;;;;;1.3;1;;;;;;;7.14;81.39258;928.2563;;;;
2021/02/02 09:12:14;;;;;;;1.8;1.3;;;;;;;7.12;81.98828;928.3504;;;;
2021/02/02 09:14:41;;;;;;;2.1;1.4;;;;;;;7.14;81.99121;928.2603;;;;
2021/02/02 09:17:06;;;;;;;2.4;1.1;;;;;;;7.14;82.07031;928.2476;;;;
2021/02/02 09:19:31;;;;;;;1.4;1;;;;;;;6.88;83.34473;928.2109;;;;
2021/02/02 09:22:00;;;;;;;0.9;0.5;;;;;;;6.9;83.9375;928.1414;;;;
2021/02/02 09:24:25;;;;;;;0.7;0.7;;;;;;;;;;;;;
2021/02/02 09:26:51;;;;;;;1.6;0.8;;;;;;;;;;;;;
2021/02/02 09:29:16;;;;;;;1.9;1.2;;;;;;;;;;;;;
2021/02/02 09:31:41;;;;;;;0.8;0.8;;;;;;;;;;;;;
2021/02/02 09:34:06;;;;;;;1.9;1.5;;;;;;;;;;;;;
2021/02/02 09:36:31;;;;;;;2.1;1.2;;;;;;;;;;;;;
2021/02/02 09:38:57;;;;;;;2;0.8;;;;;;;;;;;;;
2021/02/02 09:41:23;;;;;;;1.1;0.9;;;;;;;;;;;;;
2021/02/02 09:43:48;;;;;;;2.2;1.2;;;;;;;;;;;;;
2021/02/02 09:46:13;;;;;;;2.5;1.7;;;;;;;;;;;;;
2021/02/02 09:48:38;;;;;;;12.6;1;;;;;;;;;;;;;
2021/02/02 09:51:05;;;;;;;1.4;1;;;;;;;;;;;;;
2021/02/02 09:53:29;;;;;;;2.5;1.7;;;;;;;;;;;;;
2021/02/02 09:55:55;;;;;;;2.7;1.6;;;;;;;;;;;;;
2021/02/02 09:58:22;;;;;;;4.4;1.4;;;;;;;;;;;;;
2021/02/02 10:00:47;;;;;;;1.6;0.9;;;;;;;;;;;;;
2021/02/02 10:03:12;;;;;;;2;1.2;;;;;;;;;;;;;
2021/02/02 10:05:38;;;;;;;1.1;0.7;;;;;;;;;;;;;
2021/02/02 10:08:04;;;;;;;1;0.6;;;;;;;;;;;;;
2021/02/02 10:10:29;;;;;;;1.3;0.7;;;;;;;;;;;;;
2021/02/02 10:12:55;;;;;;;0.6;0.6;;;;;;;;;;;;;
2021/02/02 10:15:20;;;;;;;0.6;0.6;;;;;;;;;;;;;
2021/02/02 10:17:46;;;;;;;0.8;0.6;;;;;;;;;;;;;
2021/02/02 10:20:11;;;;;;;1.3;0.8;;;;;;;;;;;;;
2021/02/02 10:22:38;;;;;;;0.9;0.8;;;;;;;;;;;;;
2021/02/02 10:25:03;;;;;;;1.7;1;;;;;;;;;;;;;
2021/02/02 10:27:29;;;;;;;1;0.7;;;;;;;;;;;;;
2021/02/02 10:29:56;;;;;;;0.7;0.6;;;;;;;;;;;;;
2021/02/02 10:32:22;;;;;;;2.5;1.4;;;;;;;;;;;;;
2021/02/02 10:34:46;;;;;;;2.1;1.5;;;;;;;;;;;;;
2021/02/02 10:37:11;;;;;;;2.2;1.7;;;;;;;;;;;;;
2021/02/02 10:39:36;;;;;;;1.6;1;;;;;;;;;;;;;
2021/02/02 10:42:02;;;;;;;3.3;1.9;;;;;;;;;;;;;
2021/02/02 10:44:27;;;;;;;0.6;0.6;;;;;;;;;;;;;
2021/02/02 10:46:53;;;;;;;1.7;1.1;;;;;;;;;;;;;
2021/02/02 10:49:18;;;;;;;3.6;1.8;;;;;;;;;;;;;
2021/02/02 10:51:44;;;;;;;6.2;3;;;;;;;;;;;;;
2021/02/02 10:54:09;;;;;;;4.6;2.7;;;;;;;;;;;;;
2021/02/02 10:56:35;;;;;;;3.6;2.3;;;;;;;;;;;;;
2021/02/02 10:59:00;;;;;;;4;2.1;;;;;;;;;;;;;
2021/02/02 11:01:28;;;;;;;3.1;1.8;;;;;;;;;;;;;
2021/02/02 11:03:53;;;;;;;10.5;2.2;;;;;;;;;;;;;
2021/02/02 11:06:19;;;;;;;1.2;0.8;;;;;;;;;;;;;
2021/02/02 11:08:44;;;;;;;3.1;1.8;;;;;;;;;;;;;
2021/02/02 11:11:10;;;;;;;4.4;2.8;;;;;;;;;;;;;
2021/02/02 11:13:35;;;;;;;4.2;1.9;;;;;;;;;;;;;
2021/02/02 11:16:01;;;;;;;0.7;0.6;;;;;;;;;;;;;
2021/02/02 11:18:26;;;;;;;0.7;0.6;;;;;;;;;;;;;
2021/02/02 11:20:54;;;;;;;1;0.9;;;;;;;;;;;;;
2021/02/02 11:23:18;;;;;;;2.2;1;;;;;;;;;;;;;
2021/02/02 11:25:47;;;;;;;0.5;0.5;;;;;;;;;;;;;
2021/02/02 11:28:14;;;;;;;1.9;0.4;;;;;;;;;;;;;
2021/02/02 11:30:39;;;;;;;0.7;0.7;;;;;;;;;;;;;
2021/02/02 11:33:08;;;;;;;0.1;0.1;;;;;;;;;;;;;
2021/02/02 11:35:33;;;;;;;0.4;0.4;;;;;;;;;;;;;
2021/02/02 11:37:58;;;;;;;1.4;1.2;;;;;;;;;;;;;
2021/02/02 11:40:23;;;;;;;0.9;0.6;;;;;;;;;;;;;
2021/02/02 11:42:48;;;;;;;0.2;0.2;;;;;;;;;;;;;
2021/02/02 11:45:13;;;;;;;0.8;0.6;;;;;;;;;;;;;
2021/02/02 11:47:39;;;;;;;1.2;0.3;;;;;;;;;;;;;
2021/02/02 11:50:04;;;;;;;1.4;0.5;;;;;;;;;;;;;
2021/02/02 11:52:31;;;;;;;0.9;0.7;;;;;;;;;;;;;
2021/02/02 11:54:56;;;;;;;0.8;0.6;;;;;;;;;;;;;
2021/02/02 11:57:21;;;;;;;1;0.6;;;;;;;;;;;;;
2021/02/02 11:59:47;;;;;;;0.7;0.7;;;;;;;;;;;;;
2021/02/02 12:02:13;;;;;;;1.8;1.1;;;;;;;;;;;;;
2021/02/02 12:04:38;;;;;;;0.8;0.6;;;;;;;;;;;;;
2021/02/02 12:07:04;;;;;;;3.5;0.9;;;;;;;;;;;;;
2021/02/02 12:09:29;;;;;;;1.3;1.1;;;;;;;;;;;;;
2021/02/02 12:11:56;;;;;;;0.7;0.6;;;;;;;;;;;;;
2021/02/02 12:14:21;;;;;;;0.5;0.4;;;;;;;;;;;;;
2021/02/02 12:16:47;;;;;;;0.7;0.6;;;;;;;;;;;;;
2021/02/02 12:19:12;;;;;;;0.5;0.3;;;;;;;;;;;;;
2021/02/02 12:21:38;;;;;;;0.2;0.2;;;;;;;;;;;;;
2021/02/02 12:24:03;;;;;;;0.6;0.4;;;;;;;;;;;;;
2021/02/02 12:26:29;;;;;;;0.3;0.3;;;;;;;;;;;;;
2021/02/02 12:28:55;;;;;;;0.8;0.4;;;;;;;;;;;;;
2021/02/02 12:31:20;;;;;;;0.4;0.2;;;;;;;;;;;;;
2021/02/02 12:33:45;;;;;;;3.4;0.8;;;;;;;;;;;;;
2021/02/02 12:36:12;;;;;;;1;0.9;;;;;;;;;;;;;
2021/02/02 12:38:37;;;;;;;1.1;1;;;;;;;;;;;;;
2021/02/02 12:41:02;;;;;;;0.7;0.5;;;;;;;;;;;;;
2021/02/02 12:43:28;;;;;;;1.4;1.1;;;;;;;;;;;;;
2021/02/02 12:45:54;;;;;;;2.8;0.9;;;;;;;;;;;;;
2021/02/02 12:48:19;;;;;;;2;0.9;;;;;;;;;;;;;
2021/02/02 12:50:45;;;;;;;2.1;0.8;;;;;;;;;;;;;
2021/02/02 12:53:10;;;;;;;1.3;0.8;;;;;;;;;;;;;
2021/02/02 12:55:36;;;;;;;3.3;0.9;;;;;;;;;;;;;
2021/02/02 12:58:01;;;;;;;3.4;1.3;;;;;;;;;;;;;
2021/02/02 13:00:28;;;;;;;2.7;1.5;;;;;;;;;;;;;
2021/02/02 13:02:53;;;;;;;2.5;1.3;;;;;;;;;;;;;
2021/02/02 13:05:19;;;;;;;4.8;1.6;;;;;;;;;;;;;
2021/02/02 13:07:46;;;;;;;1.5;1.1;;;;;;;;;;;;;
2021/02/02 13:10:10;;;;;;;2.2;1;;;;;;;;;;;;;
2021/02/02 13:12:35;;;;;;;1.5;1.1;;;;;;;;;;;;;
2021/02/02 13:15:01;;;;;;;1.8;1;;;;;;;;;;;;;
2021/02/02 13:17:26;;;;;;;4.9;1.7;;;;;;;;;;;;;
2021/02/02 13:19:52;;;;;;;3.2;2.1;;;;;;;;;;;;;
2021/02/02 13:22:17;;;;;;;4.4;1.9;;;;;;;;;;;;;
2021/02/02 13:24:43;;;;;;;3.2;1.8;;;;;;;;;;;;;
2021/02/02 13:27:08;;;;;;;2.7;1.5;;;;;;;;;;;;;
2021/02/02 13:29:34;;;;;;;2.5;1.7;;;;;;;;;;;;;
2021/02/02 13:32:00;;;;;;;4.4;2.1;;;;;;;;;;;;;
2021/02/02 13:34:26;;;;;;;2.9;1.6;;;;;;;;;;;;;
2021/02/02 13:36:51;;;;;;;7.6;2.3;;;;;;;;;;;;;
2021/02/02 13:39:17;;;;;;;7.7;4.5;;;;;;;;;;;;;
2021/02/02 13:41:42;;;;;;;3.4;1.7;;;;;;;;;;;;;
2021/02/02 13:44:07;;;;;;;5.3;2;;;;;;;;;;;;;
2021/02/02 13:46:32;;;;;;;2.8;1.2;;;;;;;;;;;;;
2021/02/02 13:48:57;;;;;;;0.9;0.7;;;;;;;;;;;;;
2021/02/02 13:51:25;;;;;;;3.2;1.5;;;;;;;;;;;;;
2021/02/02 13:53:50;;;;;;;1;0.9;;;;;;;;;;;;;
2021/02/02 13:56:15;;;;;;;2;1.1;;;;;;;;;;;;;
2021/02/02 13:58:41;;;;;;;3;0.9;;;;;;;;;;;;;
2021/02/02 14:01:06;;;;;;;4;2.2;;;;;;;;;;;;;
2021/02/02 14:03:33;;;;;;;2.6;1.8;;;;;;;;;;;;;
2021/02/02 14:05:56;;;;;;;4.2;2.2;;;;;;;;;;;;;
2021/02/02 14:08:21;;;;;;;5.5;3.1;;;;;;;;;;;;;
2021/02/02 14:10:49;;;;;;;3.3;2.7;;;;;;;;;;;;;
2021/02/02 14:13:14;;;;;;;5.8;3.7;;;;;;;;;;;;;
2021/02/02 14:15:40;;;;;;;4.3;2.7;;;;;;;;;;;;;
2021/02/02 14:18:05;;;;;;;3.5;2.6;;;;;;;;;;;;;
2021/02/02 14:20:30;;;;;;;3.3;2.1;;;;;;;;;;;;;
2021/02/02 14:22:55;;;;;;;2.9;2.3;;;;;;;;;;;;;
2021/02/02 14:25:23;;;;;;;3.2;2.1;;;;;;;;;;;;;
2021/02/02 14:27:48;;;;;;;1.6;1.3;;;;;;;;;;;;;
2021/02/02 14:30:13;;;;;;;1.8;1.6;;;;;;;;;;;;;
2021/02/02 14:32:38;;;;;;;2.6;1.9;;;;;;;;;;;;;
2021/02/02 14:35:04;;;;;;;1.7;1.1;;;;;;;;;;;;;
2021/02/02 14:37:29;;;;;;;1.6;1.2;;;;;;;;;;;;;
2021/02/02 14:39:54;;;;;;;2.9;2.1;;;;;;;;;;;;;
2021/02/02 14:42:19;;;;;;;1.9;1.3;;;;;;;;;;;;;
2021/02/02 14:44:46;;;;;;;1.9;1;;;;;;;;;;;;;
2021/02/02 14:47:11;;;;;;;2.3;0.8;;;;;;;;;;;;;
2021/02/02 14:49:37;;;;;;;0.7;0.6;;;;;;;;;;;;;
2021/02/02 14:52:02;;;;;;;0.5;0.5;;;;;;;;;;;;;
2021/02/02 14:54:28;;;;;;;2.6;1.2;;;;;;;;;;;;;
2021/02/02 14:56:53;;;;;;;0.2;0.1;;;;;;;;;;;;;
2021/02/02 14:59:18;;;;;;;0.4;0.3;;;;;;;;;;;;;
2021/02/02 15:01:44;;;;;;;1.7;0.7;;;;;;;;;;;;;
2021/02/02 15:04:09;;;;;;;1.3;0.5;;;;;;;;;;;;;
2021/02/02 15:06:34;;;;;;;2.1;0.8;;;;;;;;;;;;;
2021/02/02 15:08:59;;;;;;;0.5;0.3;;;;;;;;;;;;;
2021/02/02 15:11:25;;;;;;;4.7;0.5;;;;;;;;;;;;;
2021/02/02 15:13:49;;;;;;;2;1.2;;;;;;;;;;;;;
2021/02/02 15:16:15;;;;;;;4.6;3.2;;;;;;;;;;;;;
2021/02/02 15:18:41;;;;;;;6.8;3.6;;;;;;;;;;;;;
2021/02/02 15:21:08;;;;;;;3.4;2.4;;;;;;;;;;;;;
2021/02/02 15:23:32;;;;;;;2.5;1.5;;;;;;;;;;;;;
2021/02/02 15:25:58;;;;;;;1.6;1;;;;;;;;;;;;;
2021/02/02 15:28:23;;;;;;;8.8;2.4;;;;;;;;;;;;;
2021/02/02 15:30:52;;;;;;;7.7;3.3;;;;;;;;;;;;;
2021/02/02 15:33:15;;;;;;;2.6;2.3;;;;;;;;;;;;;
2021/02/02 15:35:41;;;;;;;1.9;1.4;;;;;;;;;;;;;
2021/02/02 15:38:06;;;;;;;2.6;1.7;;;;;;;;;;;;;
2021/02/02 15:40:34;;;;;;;3;1.9;;;;;;;;;;;;;
2021/02/02 15:42:59;;;;;;;3.7;2;;;;;;;;;;;;;
2021/02/02 15:45:24;;;;;;;4.5;2.9;;;;;;;;;;;;;
2021/02/02 15:47:49;;;;;;;3.8;3.1;;;;;;;;;;;;;
2021/02/02 15:50:15;;;;;;;8.5;3.2;;;;;;;;;;;;;
2021/02/02 15:52:40;;;;;;;5;3.2;;;;;;;;;;;;;
2021/02/02 15:55:05;;;;;;;6.1;3;;;;;;;;;;;;;
2021/02/02 15:57:30;;;;;;;4.5;2.5;;;;;;;;;;;;;
2021/02/02 15:59:56;;;;;;;3.2;2.3;;;;;;;;;;;;;
2021/02/02 16:02:21;;;;;;;3.6;2.2;;;;;;;;;;;;;
2021/02/02 16:04:47;;;;;;;2.3;1.5;;;;;;;;;;;;;
2021/02/02 16:07:12;;;;;;;8.3;3.8;;;;;;;;;;;;;
2021/02/02 16:09:38;;;;;;;6.2;3.9;;;;;;;;;;;;;
2021/02/02 16:12:03;;;;;;;9.2;3.9;;;;;;;;;;;;;
2021/02/02 16:14:30;;;;;;;6.2;3;;;;;;;;;;;;;
2021/02/02 16:16:55;;;;;;;12.4;6.8;;;;;;;;;;;;;
2021/02/02 16:19:21;;;;;;;6.2;3.5;;;;;;;;;;;;;
2021/02/02 16:21:46;;;;;;;11.8;5.8;;;;;;;;;;;;;
2021/02/02 16:24:13;;;;;;;7.2;3.8;;;;;;;;;;;;;
2021/02/02 16:26:37;;;;;;;9.7;4.5;;;;;;;;;;;;;
2021/02/02 16:29:03;;;;;;;7;4.4;;;;;;;;;;;;;
2021/02/02 16:31:28;;;;;;;12.8;5.5;;;;;;;;;;;;;
2021/02/02 16:33:55;;;;;;;8.9;5.9;;;;;;;;;;;;;
2021/02/02 16:36:20;;;;;;;7.8;4.6;;;;;;;;;;;;;
2021/02/02 16:38:46;;;;;;;5.9;2.5;;;;;;;;;;;;;
2021/02/02 16:41:11;;;;;;;5.8;3.7;;;;;;;;;;;;;
2021/02/02 16:43:37;;;;;;;11.8;3.9;;;;;;;;;;;;;
2021/02/02 16:46:02;;;;;;;8.3;4.8;;;;;;;;;;;;;
2021/02/02 16:48:28;;;;;;;6.4;4;;;;;;;;;;;;;
2021/02/02 16:50:53;;;;;;;7.3;3.8;;;;;;;;;;;;;
2021/02/02 16:53:19;;;;;;;6.1;4.3;;;;;;;;;;;;;
2021/02/02 16:55:44;;;;;;;10.2;4.7;;;;;;;;;;;;;
2021/02/02 16:58:10;;;;;;;8.9;4.7;;;;;;;;;;;;;
2021/02/02 17:00:35;;;;;;;10.5;5;;;;;;;;;;;;;
2021/02/02 17:03:02;;;;;;;10;3.5;;;;;;;;;;;;;
2021/02/02 17:05:27;;;;;;;5.9;3;;;;;;;;;;;;;
2021/02/02 17:07:53;;;;;;;6.4;3.1;;;;;;;;;;;;;
2021/02/02 17:10:18;;;;;;;8.5;4.5;;;;;;;;;;;;;
2021/02/02 17:12:45;;;;;;;8.2;4.6;;;;;;;;;;;;;
2021/02/02 17:15:10;;;;;;;10.9;5.5;;;;;;;;;;;;;
2021/02/02 17:17:36;;;;;;;7.4;4.8;;;;;;;;;;;;;
2021/02/02 17:20:01;;;;;;;8.4;4.5;;;;;;;;;;;;;
2021/02/02 17:22:27;;;;;;;5.4;3;;;;;;;;;;;;;
2021/02/02 17:24:52;;;;;;;4.3;2.9;;;;;;;;;;;;;
2021/02/02 17:27:17;;;;;;;5.9;3.1;;;;;;;;;;;;;
2021/02/02 17:29:42;;;;;;;3.6;2.5;;;;;;;;;;;;;
2021/02/02 17:32:09;;;;;;;4;2.9;;;;;;;;;;;;;
2021/02/02 17:34:34;;;;;;;5.1;3.4;;;;;;;;;;;;;
2021/02/02 17:37:01;;;;;;;4.8;2.4;;;;;;;;;;;;;
2021/02/02 17:39:27;;;;;;;5.8;3.3;;;;;;;;;;;;;
2021/02/02 17:41:53;;;;;;;4.3;3;;;;;;;;;;;;;
2021/02/02 17:44:18;;;;;;;3.9;2.5;;;;;;;;;;;;;
2021/02/02 17:46:44;;;;;;;6.6;4.3;;;;;;;;;;;;;
2021/02/02 17:49:09;;;;;;;8.3;4.5;;;;;;;;;;;;;
2021/02/02 17:51:36;;;;;;;7.1;4.3;;;;;;;;;;;;;
2021/02/02 17:54:01;;;;;;;6.2;2.5;;;;;;;;;;;;;
2021/02/02 17:56:27;;;;;;;4.3;2.3;;;;;;;;;;;;;
2021/02/02 17:58:52;;;;;;;5.9;2.8;;;;;;;;;;;;;
2021/02/02 18:01:18;;;;;;;5;2.5;;;;;;;;;;;;;
2021/02/02 18:03:44;;;;;;;4.9;1.7;;;;;;;;;;;;;
2021/02/02 18:06:10;;;;;;;1.7;1.5;;;;;;;;;;;;;
2021/02/02 18:08:35;;;;;;;3.7;2.3;;;;;;;;;;;;;
2021/02/02 18:11:01;;;;;;;1.7;1.3;;;;;;;;;;;;;
2021/02/02 18:13:26;;;;;;;2.6;1.8;;;;;;;;;;;;;
2021/02/02 18:15:54;;;;;;;5.2;1.9;;;;;;;;;;;;;
2021/02/02 18:18:19;;;;;;;6.2;3.6;;;;;;;;;;;;;
2021/02/02 18:20:44;;;;;;;9.7;5.5;;;;;;;;;;;;;
2021/02/02 18:23:10;;;;;;;16.6;8.2;;;;;;;;;;;;;
2021/02/02 18:25:40;;;;;;;13.4;7.2;;;;;;;;;;;;;